Time;durP1;ratioP1;P1;durP2;ratioP2;P2;SDS_P1;SDS_P2;PMS_P1;PMS_P2;Temp;Humidity;BMP_temperature;BMP_pressure;BME280_temperature;BME280_humidity;BME280_pressure;Samples;Min_cycle;Max_cycle;Signal;HPM_P1;HPM_P2
2022/12/23 00:00:26;;;;;;;;;;;19.90;47.40;;;;;;4953323;29;19914;-51
2022/12/23 00:02:51;;;;;;;;;;;19.80;47.40;;;;;;4953825;28;19911;-51
2022/12/23 00:05:17;;;;;;;;;;;19.80;47.60;;;;;;4953189;28;19923;-51
2022/12/23 00:07:43;;;;;;;;;;;19.70;47.60;;;;;;4953670;29;20329;-51
2022/12/23 00:10:09;;;;;;;;;;;19.70;47.70;;;;;;4953738;28;19915;-51
2022/12/23 00:15:18;;;;;;;;;;;19.60;47.80;;;;;;4951997;28;20342;-52
2022/12/23 00:17:44;;;;;;;;;;;19.50;47.60;;;;;;4953170;29;19922;-51
2022/12/23 00:20:10;;;;;;;;;;;19.50;47.70;;;;;;4951309;28;19914;-51
2022/12/23 00:25:38;;;;;;;;;;;19.40;47.70;;;;;;4953327;29;19955;-51
2022/12/23 00:28:33;;;;;;;;;;;19.30;47.80;;;;;;4965190;28;19918;-51
2022/12/23 00:31:03;;;;;;;;;;;19.30;48.00;;;;;;4960680;28;19922;-51
2022/12/23 00:33:29;;;;;;;;;;;19.30;48.10;;;;;;4935767;29;19922;-51
2022/12/23 00:35:55;;;;;;;;;;;19.20;48.10;;;;;;4953531;28;19915;-51
2022/12/23 00:42:52;;;;;;;;;;;19.20;48.10;;;;;;4952093;29;20293;-51
2022/12/23 00:43:57;;;;;;;;;;;19.10;48.20;;;;;;4967245;28;19921;-51
2022/12/23 00:46:23;;;;;;;;;;;19.10;48.30;;;;;;5034031;28;20423;-51
2022/12/23 00:51:32;;;;;;;;;;;19.00;48.40;;;;;;4977615;28;20441;-51
2022/12/23 00:53:58;;;;;;;;;;;18.90;48.40;;;;;;4962389;28;19918;-51
2022/12/23 00:56:23;;;;;;;;;;;19.00;48.50;;;;;;4952597;29;19945;-51
2022/12/23 00:58:49;;;;;;;;;;;18.90;48.60;;;;;;4952437;29;19953;-52
2022/12/23 01:07:02;;;;;;;;;;;18.80;48.70;;;;;;4912723;28;19923;-51
2022/12/23 01:09:28;;;;;;;;;;;18.80;48.80;;;;;;4912098;28;20294;-51
2022/12/23 01:11:53;;;;;;;;;;;18.80;48.80;;;;;;4922934;29;19911;-51
2022/12/23 01:14:19;;;;;;;;;;;18.70;48.80;;;;;;4952143;28;20266;-51
2022/12/23 01:16:44;;;;;;;;;;;18.70;48.80;;;;;;4952891;29;19914;-51
2022/12/23 01:19:10;;;;;;;;;;;18.70;49.00;;;;;;4952741;28;20374;-51
2022/12/23 01:21:35;;;;;;;;;;;18.60;48.90;;;;;;4952786;28;19915;-51
2022/12/23 01:24:01;;;;;;;;;;;18.60;49.10;;;;;;4952406;28;19944;-51
2022/12/23 01:26:26;;;;;;;;;;;18.60;49.10;;;;;;4952398;28;20011;-51
2022/12/23 01:28:52;;;;;;;;;;;18.50;49.10;;;;;;4952420;28;19917;-51
2022/12/23 01:31:18;;;;;;;;;;;18.50;49.20;;;;;;4951237;28;19914;-51
2022/12/23 01:33:44;;;;;;;;;;;18.50;49.30;;;;;;4952559;28;19919;-51
2022/12/23 01:36:10;;;;;;;;;;;18.50;49.30;;;;;;4948666;28;19911;-51
2022/12/23 01:38:35;;;;;;;;;;;18.50;49.40;;;;;;4948520;28;19914;-51
2022/12/23 01:41:01;;;;;;;;;;;18.40;49.40;;;;;;4952168;28;19910;-51
2022/12/23 01:43:46;;;;;;;;;;;18.40;49.40;;;;;;4951403;28;19914;-51
2022/12/23 01:46:11;;;;;;;;;;;18.40;49.40;;;;;;4952344;28;20389;-51
2022/12/23 01:48:36;;;;;;;;;;;18.30;49.40;;;;;;4952354;28;19915;-51
2022/12/23 01:51:03;;;;;;;;;;;18.30;49.50;;;;;;4951617;28;19960;-51
2022/12/23 01:53:33;;;;;;;;;;;18.30;49.50;;;;;;4952397;29;19922;-51
2022/12/23 01:55:59;;;;;;;;;;;18.30;49.60;;;;;;4950988;29;19915;-51
2022/12/23 01:58:26;;;;;;;;;;;18.30;49.60;;;;;;4952145;28;19915;-52
2022/12/23 02:03:43;;;;;;;;;;;18.20;49.60;;;;;;4951451;28;20028;-51
2022/12/23 02:11:37;;;;;;;;;;;18.20;49.60;;;;;;4951940;29;19921;-51
2022/12/23 02:17:08;;;;;;;;;;;18.50;49.20;;;;;;4933172;29;19922;-51
2022/12/23 02:19:47;;;;;;;;;;;18.70;49.20;;;;;;4938594;28;20388;-51
2022/12/23 02:22:32;;;;;;;;;;;19.10;49.00;;;;;;4916731;29;20371;-51
2022/12/23 02:25:06;;;;;;;;;;;19.50;47.80;;;;;;4958741;28;20009;-53
2022/12/23 02:27:32;;;;;;;;;;;20.20;46.40;;;;;;4935209;28;19919;-51
2022/12/23 02:30:03;;;;;;;;;;;21.00;45.00;;;;;;4935658;28;19922;-50
2022/12/23 02:32:29;;;;;;;;;;;21.60;43.70;;;;;;4951858;28;19961;-51
2022/12/23 02:34:57;;;;;;;;;;;22.20;42.50;;;;;;4951053;29;19946;-51
2022/12/23 02:37:25;;;;;;;;;;;22.60;41.70;;;;;;4951612;28;19983;-51
2022/12/23 02:39:57;;;;;;;;;;;23.00;41.30;;;;;;4950741;28;19933;-51
2022/12/23 02:42:24;;;;;;;;;;;23.10;40.90;;;;;;4934291;29;20003;-51
2022/12/23 02:44:57;;;;;;;;;;;23.40;41.00;;;;;;4933549;28;19919;-51
2022/12/23 02:47:24;;;;;;;;;;;23.50;40.20;;;;;;4951124;29;19914;-51
2022/12/23 02:49:50;;;;;;;;;;;23.60;40.80;;;;;;4950681;28;20298;-51
2022/12/23 02:52:17;;;;;;;;;;;23.70;40.10;;;;;;4950023;28;19922;-51
2022/12/23 02:54:47;;;;;;;;;;;23.70;40.10;;;;;;4946087;29;20432;-51
2022/12/23 02:57:13;;;;;;;;;;;23.50;40.30;;;;;;4932241;28;19954;-51
2022/12/23 02:59:39;;;;;;;;;;;23.30;40.70;;;;;;4931047;28;19950;-51
2022/12/23 03:02:05;;;;;;;;;;;23.10;41.20;;;;;;4938948;28;19919;-51
2022/12/23 03:04:30;;;;;;;;;;;22.80;41.40;;;;;;4931886;28;19998;-51
2022/12/23 03:06:55;;;;;;;;;;;22.70;41.90;;;;;;4949170;28;19969;-51
2022/12/23 03:09:30;;;;;;;;;;;22.60;42.10;;;;;;4950883;28;20270;-51
2022/12/23 03:12:03;;;;;;;;;;;22.50;42.20;;;;;;4934188;28;19918;-52
2022/12/23 03:14:44;;;;;;;;;;;22.50;42.30;;;;;;4919144;28;19915;-53
2022/12/23 03:17:17;;;;;;;;;;;22.50;42.20;;;;;;4937015;29;19925;-52
2022/12/23 03:19:49;;;;;;;;;;;22.60;42.10;;;;;;4954511;28;19962;-52
2022/12/23 03:22:23;;;;;;;;;;;22.70;42.00;;;;;;4954721;28;19914;-52
2022/12/23 03:24:52;;;;;;;;;;;22.70;41.80;;;;;;4953397;29;19910;-53
2022/12/23 03:27:21;;;;;;;;;;;22.70;41.60;;;;;;4953330;28;19914;-52
2022/12/23 03:29:54;;;;;;;;;;;22.70;41.80;;;;;;4954226;28;19948;-52
2022/12/23 03:32:20;;;;;;;;;;;22.70;41.80;;;;;;4937432;28;20350;-53
2022/12/23 03:34:46;;;;;;;;;;;22.70;41.90;;;;;;4936728;29;19949;-53
2022/12/23 03:37:12;;;;;;;;;;;22.70;41.90;;;;;;4954238;29;19928;-52
2022/12/23 03:39:40;;;;;;;;;;;22.70;41.90;;;;;;4953329;29;19959;-52
2022/12/23 03:42:08;;;;;;;;;;;22.70;41.80;;;;;;4952483;28;19914;-52
2022/12/23 03:44:35;;;;;;;;;;;22.70;41.80;;;;;;4953332;28;19940;-52
2022/12/23 03:47:04;;;;;;;;;;;22.70;41.70;;;;;;4936957;29;19917;-52
2022/12/23 03:49:30;;;;;;;;;;;22.80;41.60;;;;;;4953405;28;19918;-52
2022/12/23 03:52:06;;;;;;;;;;;22.90;41.60;;;;;;4952890;28;20401;-52
2022/12/23 03:54:35;;;;;;;;;;;22.90;41.40;;;;;;4951463;28;19914;-52
2022/12/23 03:57:01;;;;;;;;;;;23.00;41.30;;;;;;4953658;28;20286;-52
2022/12/23 03:59:27;;;;;;;;;;;23.10;41.30;;;;;;4936053;29;19910;-52
2022/12/23 04:01:59;;;;;;;;;;;23.10;41.20;;;;;;4953661;28;19996;-52
2022/12/23 04:04:26;;;;;;;;;;;23.10;41.20;;;;;;4953626;28;19914;-52
2022/12/23 04:06:54;;;;;;;;;;;23.00;41.30;;;;;;4937817;28;19962;-52
2022/12/23 04:09:19;;;;;;;;;;;23.00;41.50;;;;;;4932879;29;19919;-52
2022/12/23 04:11:45;;;;;;;;;;;22.80;41.60;;;;;;4933498;29;20389;-52
2022/12/23 04:14:15;;;;;;;;;;;22.80;41.80;;;;;;4932726;29;21230;-52
2022/12/23 04:16:40;;;;;;;;;;;22.80;41.80;;;;;;4934392;29;20360;-52
2022/12/23 04:19:05;;;;;;;;;;;22.70;41.90;;;;;;4934280;29;20014;-52
2022/12/23 04:21:31;;;;;;;;;;;22.60;42.00;;;;;;4935393;29;20350;-52
2022/12/23 04:23:56;;;;;;;;;;;22.60;42.10;;;;;;4933931;29;20294;-52
2022/12/23 04:26:22;;;;;;;;;;;22.60;42.10;;;;;;4933496;29;19919;-52
2022/12/23 04:28:47;;;;;;;;;;;22.60;42.10;;;;;;4933613;29;19911;-52
2022/12/23 04:31:13;;;;;;;;;;;22.60;42.00;;;;;;4933989;29;19919;-52
2022/12/23 04:33:38;;;;;;;;;;;22.70;42.00;;;;;;4934083;29;19925;-52
2022/12/23 04:36:04;;;;;;;;;;;22.70;41.80;;;;;;4933827;29;20005;-52
2022/12/23 04:38:29;;;;;;;;;;;22.70;41.80;;;;;;4933946;29;19919;-52
2022/12/23 04:40:55;;;;;;;;;;;22.70;41.80;;;;;;4932619;29;19919;-53
2022/12/23 04:43:20;;;;;;;;;;;22.70;41.80;;;;;;4938161;29;19966;-51
2022/12/23 04:45:48;;;;;;;;;;;22.70;41.90;;;;;;4934008;29;19919;-51
2022/12/23 04:48:14;;;;;;;;;;;22.70;42.00;;;;;;4933613;29;20341;-51
2022/12/23 04:50:39;;;;;;;;;;;22.70;41.90;;;;;;4933865;29;19968;-51
2022/12/23 04:53:05;;;;;;;;;;;22.70;41.80;;;;;;4944847;28;19930;-51
2022/12/23 04:55:30;;;;;;;;;;;22.70;41.90;;;;;;4933621;29;20431;-51
2022/12/23 04:57:55;;;;;;;;;;;22.70;41.80;;;;;;4933251;29;20367;-51
2022/12/23 05:00:21;;;;;;;;;;;22.60;41.90;;;;;;4933541;29;19929;-51
2022/12/23 05:02:46;;;;;;;;;;;22.60;42.10;;;;;;4933945;29;19939;-51
2022/12/23 05:05:12;;;;;;;;;;;22.60;42.10;;;;;;4937906;29;19922;-51
2022/12/23 05:07:37;;;;;;;;;;;22.60;42.20;;;;;;4949277;28;19914;-51
2022/12/23 05:10:03;;;;;;;;;;;22.40;42.30;;;;;;4952420;28;19918;-51
2022/12/23 05:12:28;;;;;;;;;;;22.40;42.50;;;;;;4952428;28;19971;-51
2022/12/23 05:14:54;;;;;;;;;;;22.30;42.70;;;;;;4952239;29;19921;-51
2022/12/23 05:17:19;;;;;;;;;;;22.20;42.70;;;;;;4952306;29;19953;-50
2022/12/23 05:19:45;;;;;;;;;;;22.20;42.80;;;;;;4931502;28;20383;-51
2022/12/23 05:22:10;;;;;;;;;;;22.20;42.70;;;;;;4952646;29;19933;-51
2022/12/23 05:24:36;;;;;;;;;;;22.20;42.70;;;;;;4952007;28;19925;-51
2022/12/23 05:27:01;;;;;;;;;;;22.20;42.90;;;;;;4952828;28;19915;-51
2022/12/23 05:29:27;;;;;;;;;;;22.20;42.80;;;;;;4951947;28;20385;-51
2022/12/23 05:31:52;;;;;;;;;;;22.20;42.80;;;;;;4952668;28;19973;-51
2022/12/23 05:34:17;;;;;;;;;;;22.20;42.70;;;;;;4951621;28;19915;-51
2022/12/23 05:36:43;;;;;;;;;;;22.30;42.70;;;;;;4952267;29;19921;-51
2022/12/23 05:39:08;;;;;;;;;;;22.30;42.60;;;;;;4950865;29;19918;-51
2022/12/23 05:41:34;;;;;;;;;;;22.40;42.50;;;;;;4951860;28;19964;-51
2022/12/23 05:43:59;;;;;;;;;;;22.40;42.50;;;;;;4951658;28;20025;-51
2022/12/23 05:46:25;;;;;;;;;;;22.40;42.30;;;;;;4951802;29;19914;-51
2022/12/23 05:48:50;;;;;;;;;;;22.40;42.50;;;;;;4951884;28;19915;-51
2022/12/23 05:51:16;;;;;;;;;;;22.40;42.50;;;;;;4965091;28;19976;-51
2022/12/23 05:53:41;;;;;;;;;;;22.40;42.50;;;;;;5017951;28;19922;-51
2022/12/23 05:56:07;;;;;;;;;;;22.40;42.50;;;;;;4951558;28;19990;-51
2022/12/23 05:58:32;;;;;;;;;;;22.40;42.40;;;;;;4951599;28;19936;-51
2022/12/23 06:00:59;;;;;;;;;;;22.50;42.40;;;;;;4951828;28;19915;-51
2022/12/23 06:03:25;;;;;;;;;;;22.40;42.40;;;;;;4951214;29;19931;-51
2022/12/23 06:05:50;;;;;;;;;;;22.50;42.30;;;;;;4951837;28;19922;-51
2022/12/23 06:08:16;;;;;;;;;;;22.50;42.20;;;;;;4951558;28;19923;-52
2022/12/23 06:10:41;;;;;;;;;;;22.60;42.10;;;;;;4951567;28;19917;-52
2022/12/23 06:13:07;;;;;;;;;;;22.60;42.00;;;;;;4951131;28;20000;-52
2022/12/23 06:15:32;;;;;;;;;;;22.70;41.90;;;;;;4951813;29;19984;-51
2022/12/23 06:17:58;;;;;;;;;;;22.80;41.80;;;;;;4957503;28;20001;-51
2022/12/23 06:20:23;;;;;;;;;;;22.80;41.60;;;;;;4956274;28;20358;-51
2022/12/23 06:22:49;;;;;;;;;;;22.90;41.60;;;;;;4952568;28;20290;-51
2022/12/23 06:25:14;;;;;;;;;;;23.00;41.50;;;;;;4951568;29;19918;-52
2022/12/23 06:27:40;;;;;;;;;;;23.00;41.40;;;;;;4951011;29;19925;-52
2022/12/23 06:30:06;;;;;;;;;;;23.00;41.40;;;;;;4951519;28;20013;-52
2022/12/23 06:32:31;;;;;;;;;;;23.10;41.30;;;;;;4952837;28;19918;-51
2022/12/23 06:34:56;;;;;;;;;;;23.10;41.30;;;;;;4951189;29;19914;-51
2022/12/23 06:37:22;;;;;;;;;;;23.10;41.40;;;;;;4951383;29;19969;-51
2022/12/23 06:39:47;;;;;;;;;;;23.00;41.40;;;;;;4950814;28;19921;-52
2022/12/23 06:42:13;;;;;;;;;;;23.00;41.50;;;;;;4951818;28;19910;-51
2022/12/23 06:44:38;;;;;;;;;;;22.90;41.50;;;;;;4950518;29;20306;-51
2022/12/23 06:47:04;;;;;;;;;;;22.80;41.60;;;;;;4951681;28;20009;-51
2022/12/23 06:49:29;;;;;;;;;;;22.80;41.70;;;;;;4952213;28;19918;-51
2022/12/23 06:51:55;;;;;;;;;;;22.80;41.70;;;;;;4995300;28;19908;-52
2022/12/23 06:54:20;;;;;;;;;;;22.80;41.70;;;;;;4982314;28;19922;-52
2022/12/23 06:56:45;;;;;;;;;;;22.80;41.60;;;;;;4955055;28;19915;-52
2022/12/23 06:59:11;;;;;;;;;;;22.80;41.60;;;;;;4952345;28;20001;-51
2022/12/23 07:01:36;;;;;;;;;;;22.80;41.60;;;;;;4955946;28;19960;-51
2022/12/23 07:04:02;;;;;;;;;;;22.90;41.60;;;;;;4960722;28;19921;-51
2022/12/23 07:06:27;;;;;;;;;;;22.80;41.50;;;;;;4952990;28;20433;-51
2022/12/23 07:08:53;;;;;;;;;;;22.90;41.70;;;;;;4954614;28;19914;-51
2022/12/23 07:11:18;;;;;;;;;;;22.90;41.70;;;;;;4953460;28;20488;-51
2022/12/23 07:13:44;;;;;;;;;;;22.80;41.60;;;;;;4953610;28;19922;-51
2022/12/23 07:16:09;;;;;;;;;;;22.80;41.60;;;;;;4954131;29;19918;-51
2022/12/23 07:18:35;;;;;;;;;;;22.90;41.70;;;;;;4953755;28;20013;-52
2022/12/23 07:21:01;;;;;;;;;;;22.80;41.60;;;;;;4954209;29;19925;-51
2022/12/23 07:23:26;;;;;;;;;;;22.90;41.70;;;;;;4954483;28;19926;-52
2022/12/23 07:25:51;;;;;;;;;;;22.80;41.90;;;;;;4953916;28;19910;-51
2022/12/23 07:28:17;;;;;;;;;;;22.70;41.90;;;;;;4952083;28;20290;-51
2022/12/23 07:30:42;;;;;;;;;;;22.70;42.00;;;;;;4953943;28;19914;-51
2022/12/23 07:33:08;;;;;;;;;;;22.70;42.10;;;;;;4953666;28;19963;-52
2022/12/23 07:35:33;;;;;;;;;;;22.60;42.10;;;;;;4954144;28;20004;-53
2022/12/23 07:37:58;;;;;;;;;;;22.50;42.20;;;;;;4953328;28;19918;-54
2022/12/23 07:40:24;;;;;;;;;;;22.50;42.40;;;;;;4952779;28;19919;-52
2022/12/23 07:42:52;;;;;;;;;;;22.50;42.30;;;;;;4941429;29;19915;-53
2022/12/23 07:45:18;;;;;;;;;;;22.40;42.50;;;;;;4953830;28;19915;-53
2022/12/23 07:47:43;;;;;;;;;;;22.30;42.50;;;;;;4936605;28;20267;-51
2022/12/23 07:50:09;;;;;;;;;;;22.30;42.50;;;;;;4950998;28;19915;-52
2022/12/23 07:52:34;;;;;;;;;;;22.30;42.60;;;;;;5022077;28;19916;-51
2022/12/23 07:55:00;;;;;;;;;;;22.30;42.70;;;;;;4964066;28;19997;-52
2022/12/23 07:57:25;;;;;;;;;;;22.30;42.70;;;;;;4953838;29;19918;-51
2022/12/23 07:59:50;;;;;;;;;;;22.20;42.80;;;;;;4953303;29;19915;-51
2022/12/23 08:02:16;;;;;;;;;;;22.20;42.70;;;;;;4952987;28;19922;-52
2022/12/23 08:04:41;;;;;;;;;;;22.30;42.50;;;;;;4952256;28;19953;-51
2022/12/23 08:07:07;;;;;;;;;;;22.40;42.40;;;;;;4951550;28;19941;-52
2022/12/23 08:09:32;;;;;;;;;;;22.50;42.20;;;;;;4951835;28;20299;-52
2022/12/23 08:11:58;;;;;;;;;;;22.60;42.10;;;;;;4953631;29;19911;-51
2022/12/23 08:14:23;;;;;;;;;;;22.60;42.20;;;;;;4952531;29;19969;-52
2022/12/23 08:16:48;;;;;;;;;;;22.60;42.20;;;;;;4953259;28;19915;-51
2022/12/23 08:19:14;;;;;;;;;;;22.50;42.10;;;;;;4954006;28;19918;-52
2022/12/23 08:21:39;;;;;;;;;;;22.60;42.20;;;;;;4953478;29;19988;-51
2022/12/23 08:24:05;;;;;;;;;;;22.50;42.30;;;;;;4946324;28;19922;-51
2022/12/23 08:26:31;;;;;;;;;;;22.50;42.20;;;;;;4953104;29;19910;-51
2022/12/23 08:28:56;;;;;;;;;;;22.50;42.30;;;;;;4945534;28;19919;-51
2022/12/23 08:31:22;;;;;;;;;;;22.50;42.40;;;;;;4947445;28;19915;-51
2022/12/23 08:33:49;;;;;;;;;;;22.50;42.30;;;;;;4933935;28;20347;-51
2022/12/23 08:36:15;;;;;;;;;;;22.50;42.40;;;;;;4938001;28;19919;-51
2022/12/23 08:38:41;;;;;;;;;;;22.40;42.50;;;;;;4948975;29;20325;-52
2022/12/23 08:41:09;;;;;;;;;;;22.40;42.60;;;;;;4953116;28;20005;-51
2022/12/23 08:43:35;;;;;;;;;;;22.40;42.50;;;;;;4952196;28;19989;-52
2022/12/23 08:46:01;;;;;;;;;;;22.40;42.40;;;;;;4952613;29;19937;-53
2022/12/23 08:48:26;;;;;;;;;;;22.50;42.30;;;;;;4951722;28;19954;-52
2022/12/23 08:50:52;;;;;;;;;;;22.60;42.10;;;;;;4952749;28;19922;-51
2022/12/23 08:53:17;;;;;;;;;;;22.70;42.10;;;;;;4954616;28;19918;-52
2022/12/23 08:55:44;;;;;;;;;;;22.80;41.80;;;;;;4948693;28;19921;-52
2022/12/23 08:58:09;;;;;;;;;;;22.90;41.70;;;;;;4940493;28;19966;-52
2022/12/23 09:00:35;;;;;;;;;;;22.90;41.50;;;;;;4950443;28;19952;-52
2022/12/23 09:03:00;;;;;;;;;;;23.00;41.50;;;;;;4951801;29;19960;-51
2022/12/23 09:05:26;;;;;;;;;;;23.00;41.40;;;;;;4952432;29;19927;-53
2022/12/23 09:07:51;;;;;;;;;;;23.00;41.50;;;;;;4952422;29;19910;-51
2022/12/23 09:10:17;;;;;;;;;;;23.00;41.50;;;;;;4952430;29;19910;-51
2022/12/23 09:12:42;;;;;;;;;;;23.00;41.50;;;;;;4952324;29;20072;-51
2022/12/23 09:15:08;;;;;;;;;;;23.00;41.50;;;;;;4967066;28;19922;-52
2022/12/23 09:17:33;;;;;;;;;;;23.00;41.50;;;;;;4958843;28;20001;-51
2022/12/23 09:19:59;;;;;;;;;;;23.00;41.60;;;;;;4951867;29;19915;-52
2022/12/23 09:22:24;;;;;;;;;;;22.90;41.60;;;;;;4952283;29;19915;-51
2022/12/23 09:24:49;;;;;;;;;;;22.80;41.60;;;;;;4934417;29;19914;-51
2022/12/23 09:27:15;;;;;;;;;;;22.80;41.80;;;;;;4952653;29;19911;-51
2022/12/23 09:29:40;;;;;;;;;;;22.80;41.80;;;;;;4950952;29;19954;-52
2022/12/23 09:32:06;;;;;;;;;;;22.80;41.90;;;;;;4963950;28;19918;-52
2022/12/23 09:34:31;;;;;;;;;;;22.80;42.00;;;;;;4949121;28;20005;-52
2022/12/23 09:36:57;;;;;;;;;;;23.00;41.60;;;;;;4951854;29;19914;-51
2022/12/23 09:39:23;;;;;;;;;;;23.30;41.50;;;;;;4951228;29;19949;-52
2022/12/23 09:41:48;;;;;;;;;;;23.50;40.90;;;;;;4952419;28;19914;-52
2022/12/23 09:44:32;;;;;;;;;;;23.70;40.70;;;;;;4951633;28;20373;-51
2022/12/23 09:46:58;;;;;;;;;;;23.80;40.50;;;;;;4951838;29;19922;-52
2022/12/23 09:49:24;;;;;;;;;;;24.00;40.30;;;;;;4968784;28;19917;-52
2022/12/23 09:51:49;;;;;;;;;;;24.00;40.20;;;;;;4996168;28;19917;-52
2022/12/23 09:54:15;;;;;;;;;;;24.00;40.00;;;;;;5052067;28;19919;-51
2022/12/23 09:56:40;;;;;;;;;;;24.00;40.00;;;;;;5001769;28;19976;-51
2022/12/23 09:59:11;;;;;;;;;;;24.00;40.00;;;;;;4951861;29;20283;-52
2022/12/23 10:01:42;;;;;;;;;;;24.10;40.00;;;;;;4951773;29;19945;-53
2022/12/23 10:04:07;;;;;;;;;;;24.00;39.90;;;;;;4934991;28;19922;-53
2022/12/23 10:06:33;;;;;;;;;;;23.90;40.20;;;;;;4952114;28;19922;-53
2022/12/23 10:09:02;;;;;;;;;;;23.80;40.40;;;;;;4950763;28;19918;-53
2022/12/23 10:11:28;;;;;;;;;;;23.80;40.60;;;;;;4950426;28;19918;-51
2022/12/23 10:13:58;;;;;;;;;;;23.80;40.50;;;;;;4934301;28;20371;-53
2022/12/23 10:16:29;;;;;;;;;;;23.80;40.40;;;;;;4977320;28;19963;-52
2022/12/23 10:18:56;;;;;;;;;;;23.80;40.40;;;;;;4951053;29;19926;-52
2022/12/23 10:21:35;;;;;;;;;;;23.80;40.40;;;;;;4952193;28;19960;-51
2022/12/23 10:24:02;;;;;;;;;;;23.90;40.40;;;;;;4936914;28;19923;-52
2022/12/23 10:26:31;;;;;;;;;;;24.00;40.30;;;;;;4949129;28;19914;-52
2022/12/23 10:28:58;;;;;;;;;;;23.90;40.30;;;;;;4957265;28;19948;-52
2022/12/23 10:31:31;;;;;;;;;;;23.80;40.70;;;;;;4948521;28;19923;-52
2022/12/23 10:34:29;;;;;;;;;;;23.60;41.00;;;;;;4962268;28;20394;-53
2022/12/23 10:37:13;;;;;;;;;;;23.40;41.20;;;;;;4969543;28;20379;-52
2022/12/23 10:39:38;;;;;;;;;;;23.40;41.60;;;;;;4948536;28;19930;-51
2022/12/23 10:42:11;;;;;;;;;;;23.40;41.60;;;;;;4950806;28;19918;-52
2022/12/23 10:44:41;;;;;;;;;;;23.50;41.40;;;;;;4926599;28;19923;-51
2022/12/23 10:47:23;;;;;;;;;;;23.60;41.20;;;;;;4926331;28;20392;-53
2022/12/23 10:49:57;;;;;;;;;;;23.70;41.00;;;;;;4965157;28;20397;-53
2022/12/23 10:52:22;;;;;;;;;;;23.80;40.90;;;;;;4957705;28;20029;-53
2022/12/23 10:54:48;;;;;;;;;;;23.80;40.90;;;;;;4950812;28;20017;-53
2022/12/23 10:57:14;;;;;;;;;;;23.90;40.60;;;;;;4951595;28;19914;-53
2022/12/23 10:59:40;;;;;;;;;;;24.00;40.50;;;;;;4964698;28;19953;-52
2022/12/23 11:02:11;;;;;;;;;;;24.00;40.40;;;;;;4947403;28;19915;-52
2022/12/23 11:04:43;;;;;;;;;;;23.90;40.50;;;;;;4946069;28;19918;-52
2022/12/23 11:07:19;;;;;;;;;;;23.80;40.70;;;;;;4947621;28;19921;-52
2022/12/23 11:09:46;;;;;;;;;;;23.80;40.90;;;;;;4947121;28;19918;-52
2022/12/23 11:12:11;;;;;;;;;;;24.00;40.60;;;;;;4949655;28;19915;-53
2022/12/23 11:14:37;;;;;;;;;;;24.00;40.40;;;;;;4943951;28;19952;-52
2022/12/23 11:17:03;;;;;;;;;;;24.10;40.20;;;;;;4949315;28;19918;-51
2022/12/23 11:19:28;;;;;;;;;;;24.20;40.20;;;;;;4948661;28;19933;-51
2022/12/23 11:21:57;;;;;;;;;;;24.30;40.20;;;;;;4948580;28;19966;-52
2022/12/23 11:24:23;;;;;;;;;;;24.30;40.00;;;;;;4947662;28;19922;-51
2022/12/23 11:27:04;;;;;;;;;;;24.30;40.00;;;;;;4948723;28;19921;-51
2022/12/23 11:29:32;;;;;;;;;;;24.30;39.90;;;;;;4949201;28;19924;-53
2022/12/23 11:31:58;;;;;;;;;;;24.10;40.20;;;;;;4943181;28;19981;-52
2022/12/23 11:34:24;;;;;;;;;;;24.00;40.60;;;;;;4943408;28;19969;-52
2022/12/23 11:36:53;;;;;;;;;;;23.80;40.70;;;;;;4951297;28;19965;-52
2022/12/23 11:39:28;;;;;;;;;;;23.80;40.90;;;;;;4982382;28;20313;-52
2022/12/23 11:42:00;;;;;;;;;;;23.90;40.70;;;;;;4947687;28;19922;-53
2022/12/23 11:44:30;;;;;;;;;;;24.00;40.50;;;;;;4946932;28;19941;-52
2022/12/23 11:46:56;;;;;;;;;;;24.10;40.50;;;;;;4932252;28;20313;-52
2022/12/23 11:49:22;;;;;;;;;;;24.10;40.40;;;;;;4988248;28;19915;-52
2022/12/23 11:52:03;;;;;;;;;;;24.20;40.10;;;;;;4948147;28;19923;-52
2022/12/23 11:54:29;;;;;;;;;;;24.20;40.10;;;;;;4945447;28;19922;-53
2022/12/23 11:56:54;;;;;;;;;;;24.30;40.00;;;;;;4944865;28;20665;-52
2022/12/23 11:59:25;;;;;;;;;;;24.30;40.00;;;;;;4947225;28;20347;-52
2022/12/23 12:01:51;;;;;;;;;;;24.40;40.00;;;;;;4950039;28;19956;-53
2022/12/23 12:04:20;;;;;;;;;;;24.40;40.00;;;;;;4947164;28;19994;-52
2022/12/23 12:06:47;;;;;;;;;;;24.40;39.90;;;;;;4945443;28;19923;-52
2022/12/23 12:09:12;;;;;;;;;;;24.30;39.90;;;;;;4947581;28;20362;-52
2022/12/23 12:11:38;;;;;;;;;;;24.30;40.20;;;;;;4949324;28;20009;-52
2022/12/23 12:14:05;;;;;;;;;;;24.20;40.30;;;;;;4947878;28;20461;-52
2022/12/23 12:16:41;;;;;;;;;;;24.20;40.30;;;;;;4992225;28;19919;-52
2022/12/23 12:19:10;;;;;;;;;;;24.10;40.30;;;;;;4956002;28;19926;-52
2022/12/23 12:21:36;;;;;;;;;;;24.10;40.50;;;;;;4954048;28;19926;-52
2022/12/23 12:24:04;;;;;;;;;;;24.10;40.40;;;;;;4971675;28;20371;-51
2022/12/23 12:26:30;;;;;;;;;;;24.40;40.20;;;;;;4947825;28;19918;-51
2022/12/23 12:29:16;;;;;;;;;;;24.60;39.80;;;;;;4955870;28;19929;-52
2022/12/23 12:31:42;;;;;;;;;;;24.80;39.50;;;;;;4971124;28;19915;-51
2022/12/23 12:34:14;;;;;;;;;;;25.00;39.10;;;;;;4950675;28;19919;-52
2022/12/23 12:36:45;;;;;;;;;;;25.10;39.00;;;;;;4969129;28;19924;-53
2022/12/23 12:39:14;;;;;;;;;;;25.10;38.80;;;;;;4964506;28;19926;-52
2022/12/23 12:41:43;;;;;;;;;;;25.10;38.80;;;;;;4952186;28;19919;-54
2022/12/23 12:44:17;;;;;;;;;;;25.20;38.80;;;;;;4956196;28;19958;-51
2022/12/23 12:46:46;;;;;;;;;;;25.20;38.70;;;;;;4935825;28;20337;-53
2022/12/23 12:49:19;;;;;;;;;;;25.30;38.80;;;;;;4952622;28;19914;-51
2022/12/23 12:51:44;;;;;;;;;;;25.20;38.80;;;;;;4935555;28;19919;-51
2022/12/23 12:54:15;;;;;;;;;;;25.10;38.80;;;;;;4952912;28;20013;-51
2022/12/23 12:56:44;;;;;;;;;;;25.10;38.90;;;;;;4944088;28;19954;-54
2022/12/23 12:59:16;;;;;;;;;;;25.10;39.00;;;;;;4951554;28;19914;-51
2022/12/23 13:01:51;;;;;;;;;;;25.10;38.90;;;;;;4958685;28;19914;-52
2022/12/23 13:04:30;;;;;;;;;;;25.10;38.90;;;;;;4945907;28;19926;-52
2022/12/23 13:07:00;;;;;;;;;;;25.20;38.80;;;;;;5009115;28;19945;-52
2022/12/23 13:09:40;;;;;;;;;;;25.20;38.70;;;;;;4987959;28;20389;-52
2022/12/23 13:12:10;;;;;;;;;;;25.20;39.50;;;;;;4951783;28;19918;-52
2022/12/23 13:14:50;;;;;;;;;;;25.20;38.90;;;;;;4934372;28;19980;-52
2022/12/23 13:17:15;;;;;;;;;;;25.30;38.80;;;;;;4952652;28;19911;-52
2022/12/23 13:19:43;;;;;;;;;;;25.30;38.60;;;;;;4966608;28;19970;-52
2022/12/23 13:22:10;;;;;;;;;;;25.40;38.60;;;;;;5018029;28;19965;-53
2022/12/23 13:24:40;;;;;;;;;;;25.40;38.50;;;;;;4953030;28;20041;-52
2022/12/23 13:27:10;;;;;;;;;;;25.40;38.40;;;;;;4933697;28;19961;-52
2022/12/23 13:29:35;;;;;;;;;;;25.50;38.40;;;;;;4949478;28;20358;-54
2022/12/23 13:32:19;;;;;;;;;;;25.50;38.40;;;;;;4952293;28;19945;-53
2022/12/23 13:34:51;;;;;;;;;;;25.40;38.70;;;;;;4949805;28;19922;-53
2022/12/23 13:37:35;;;;;;;;;;;25.20;39.00;;;;;;4958653;28;19917;-52
2022/12/23 13:40:20;;;;;;;;;;;25.10;39.00;;;;;;4934213;28;19915;-51
2022/12/23 13:42:47;;;;;;;;;;;25.30;38.90;;;;;;4946802;29;20339;-51
2022/12/23 13:45:13;;;;;;;;;;;25.20;39.00;;;;;;4937294;28;19915;-51
2022/12/23 13:47:48;;;;;;;;;;;25.20;38.90;;;;;;4953502;28;19918;-52
2022/12/23 13:50:15;;;;;;;;;;;25.30;38.90;;;;;;4947999;28;20052;-52
2022/12/23 13:53:03;;;;;;;;;;;25.30;38.90;;;;;;4961418;28;19969;-53
2022/12/23 13:55:34;;;;;;;;;;;25.40;38.70;;;;;;4945967;28;19965;-52
2022/12/23 13:58:02;;;;;;;;;;;25.40;38.70;;;;;;4948158;28;20017;-51
2022/12/23 14:00:31;;;;;;;;;;;25.50;38.70;;;;;;4941979;28;19918;-54
2022/12/23 14:02:57;;;;;;;;;;;25.50;38.60;;;;;;4952803;28;20013;-52
2022/12/23 14:05:40;;;;;;;;;;;25.40;38.60;;;;;;4950755;29;20001;-52
2022/12/23 14:08:10;;;;;;;;;;;25.40;38.70;;;;;;4951531;28;19933;-52
2022/12/23 14:10:35;;;;;;;;;;;25.40;38.90;;;;;;4937024;28;19940;-52
2022/12/23 14:13:04;;;;;;;;;;;25.40;39.00;;;;;;4950356;29;21358;-52
2022/12/23 14:15:38;;;;;;;;;;;25.40;39.00;;;;;;4950980;28;20344;-52
2022/12/23 14:18:19;;;;;;;;;;;25.50;38.90;;;;;;4953041;28;19925;-53
2022/12/23 14:20:54;;;;;;;;;;;25.60;38.70;;;;;;4951380;28;20383;-53
2022/12/23 14:23:42;;;;;;;;;;;25.60;38.70;;;;;;4951326;28;19929;-52
2022/12/23 14:26:24;;;;;;;;;;;25.40;39.50;;;;;;4947090;28;20021;-53
2022/12/23 14:28:53;;;;;;;;;;;25.40;39.10;;;;;;4948020;28;19919;-52
2022/12/23 14:31:41;;;;;;;;;;;25.40;39.20;;;;;;4946632;28;19921;-52
2022/12/23 14:34:16;;;;;;;;;;;25.50;39.00;;;;;;4959008;28;19975;-52
2022/12/23 14:37:01;;;;;;;;;;;25.60;39.00;;;;;;4949048;28;19914;-52
2022/12/23 14:39:30;;;;;;;;;;;25.50;39.00;;;;;;4945807;28;19918;-53
2022/12/23 14:41:56;;;;;;;;;;;25.40;39.00;;;;;;4952790;28;19923;-53
2022/12/23 14:44:34;;;;;;;;;;;25.50;39.00;;;;;;4959063;28;20002;-52
2022/12/23 14:46:59;;;;;;;;;;;25.50;39.10;;;;;;4931936;29;19921;-52
2022/12/23 14:49:54;;;;;;;;;;;25.60;39.10;;;;;;4944240;28;19918;-53